PWSweather.com
Personal Weather Stations
Station Observations
270882
Flassian, LimouxFR 11300

FlassianLimouxFR 11300

Lat: 43.071798, Lon: 2.217292

Elevation: 165

Station Type: Oregon WMR 200

http://www.meteolimoux.fr

High Low Average
Temperature 81.0°F27.2°C 46.6°F8.1°C 61.5°F16.4°C
Dew Point 58.5°F14.7°C 41.4°F5.2°C 49.7°F9.8°C
Winds 9.4 mph 15.1 kmh Calm Calm 2.0 mph NNE3.2 kmh NNE
Wind Gusts 15.9 mph25.6 kmh -- 3.0 mph4.8 kmh
Humidity 86% 41% 68%
Pressure 30.31 in1026.4 mb 30.22 in1023.4 mb -
Precipitation 0.00 in0.0 mm - -
Hour Temp Dew Point Humidity Winds Wind Gusts Pressure Precip Precip Rate Daily Precip Total
12:02 AM 53.6°F12.0°C 46.6°F8.1°C 77% Calm Calm -- 30.28 in1025.4 mb - 0.00 in0.0 mm 0.00 in0.0 mm
12:07 AM 53.4°F11.9°C 46.4°F8.0°C 77% Calm Calm -- 30.28 in1025.4 mb - 0.00 in0.0 mm 0.00 in0.0 mm
12:12 AM 53.2°F11.8°C 46.2°F7.9°C 77% Calm Calm -- 30.28 in1025.4 mb - 0.00 in0.0 mm 0.00 in0.0 mm
12:17 AM 53.2°F11.8°C 46.2°F7.9°C 77% Calm Calm -- 30.28 in1025.4 mb - 0.00 in0.0 mm 0.00 in0.0 mm
12:22 AM 53.1°F11.7°C 46.4°F8.0°C 78% Calm Calm -- 30.28 in1025.4 mb - 0.00 in0.0 mm 0.00 in0.0 mm
12:27 AM 53.1°F11.7°C 46.4°F8.0°C 78% Calm Calm -- 30.28 in1025.4 mb - 0.00 in0.0 mm 0.00 in0.0 mm
12:32 AM 53.1°F11.7°C 46.4°F8.0°C 78% Calm Calm -- 30.28 in1025.4 mb - 0.00 in0.0 mm 0.00 in0.0 mm
12:37 AM 52.9°F11.6°C 46.2°F7.9°C 78% Calm Calm -- 30.28 in1025.4 mb - 0.00 in0.0 mm 0.00 in0.0 mm
12:42 AM 52.9°F11.6°C 46.2°F7.9°C 78% Calm Calm -- 30.28 in1025.4 mb - 0.00 in0.0 mm 0.00 in0.0 mm
12:47 AM 52.7°F11.5°C 46.0°F7.8°C 78% Calm Calm -- 30.28 in1025.4 mb - 0.00 in0.0 mm 0.00 in0.0 mm
12:52 AM 52.7°F11.5°C 46.0°F7.8°C 78% Calm Calm -- 30.28 in1025.4 mb - 0.00 in0.0 mm 0.00 in0.0 mm
12:57 AM 52.5°F11.4°C 45.9°F7.7°C 78% Calm Calm -- 30.28 in1025.4 mb - 0.00 in0.0 mm 0.00 in0.0 mm
01:02 AM 52.3°F11.3°C 45.7°F7.6°C 78% Calm Calm -- 30.28 in1025.4 mb - 0.00 in0.0 mm 0.00 in0.0 mm
01:07 AM 52.2°F11.2°C 45.5°F7.5°C 78% Calm Calm -- 30.28 in1025.4 mb - 0.00 in0.0 mm 0.00 in0.0 mm
01:12 AM 52.0°F11.1°C 45.3°F7.4°C 78% Calm Calm -- 30.28 in1025.4 mb - 0.00 in0.0 mm 0.00 in0.0 mm
01:17 AM 52.0°F11.1°C 45.7°F7.6°C 79% Calm Calm -- 30.28 in1025.4 mb - 0.00 in0.0 mm 0.00 in0.0 mm
01:22 AM 51.8°F11.0°C 45.5°F7.5°C 79% Calm Calm -- 30.28 in1025.4 mb - 0.00 in0.0 mm 0.00 in0.0 mm
01:27 AM 51.8°F11.0°C 45.1°F7.3°C 78% Calm Calm -- 30.28 in1025.4 mb - 0.00 in0.0 mm 0.00 in0.0 mm
01:32 AM 51.6°F10.9°C 45.0°F7.2°C 78% Calm Calm -- 30.28 in1025.4 mb - 0.00 in0.0 mm 0.00 in0.0 mm
01:37 AM 51.4°F10.8°C 45.1°F7.3°C 79% Calm Calm -- 30.28 in1025.4 mb - 0.00 in0.0 mm 0.00 in0.0 mm
01:42 AM 51.3°F10.7°C 45.0°F7.2°C 79% Calm Calm -- 30.28 in1025.4 mb - 0.00 in0.0 mm 0.00 in0.0 mm
01:47 AM 51.3°F10.7°C 45.0°F7.2°C 79% Calm Calm -- 30.28 in1025.4 mb - 0.00 in0.0 mm 0.00 in0.0 mm
01:52 AM 51.1°F10.6°C 44.8°F7.1°C 79% Calm Calm -- 30.28 in1025.4 mb - 0.00 in0.0 mm 0.00 in0.0 mm
01:57 AM 51.1°F10.6°C 44.8°F7.1°C 79% Calm Calm -- 30.28 in1025.4 mb - 0.00 in0.0 mm 0.00 in0.0 mm
02:02 AM 51.1°F10.6°C 44.8°F7.1°C 79% Calm Calm -- 30.28 in1025.4 mb - 0.00 in0.0 mm 0.00 in0.0 mm
02:07 AM 50.9°F10.5°C 44.6°F7.0°C 79% Calm Calm -- 30.28 in1025.4 mb - 0.00 in0.0 mm 0.00 in0.0 mm
02:12 AM 50.7°F10.4°C 44.4°F6.9°C 79% Calm Calm -- 30.25 in1024.4 mb - 0.00 in0.0 mm 0.00 in0.0 mm
02:17 AM 50.7°F10.4°C 44.4°F6.9°C 79% Calm Calm -- 30.25 in1024.4 mb - 0.00 in0.0 mm 0.00 in0.0 mm
02:22 AM 50.5°F10.3°C 44.2°F6.8°C 79% Calm Calm -- 30.25 in1024.4 mb - 0.00 in0.0 mm 0.00 in0.0 mm
02:27 AM 50.5°F10.3°C 44.2°F6.8°C 79% Calm Calm -- 30.25 in1024.4 mb - 0.00 in0.0 mm 0.00 in0.0 mm
02:32 AM 50.5°F10.3°C 44.6°F7.0°C 80% Calm Calm -- 30.25 in1024.4 mb - 0.00 in0.0 mm 0.00 in0.0 mm
02:37 AM 50.4°F10.2°C 44.1°F6.7°C 79% Calm Calm -- 30.25 in1024.4 mb - 0.00 in0.0 mm 0.00 in0.0 mm
02:42 AM 50.2°F10.1°C 43.9°F6.6°C 79% Calm Calm -- 30.28 in1025.4 mb - 0.00 in0.0 mm 0.00 in0.0 mm
02:47 AM 50.0°F10.0°C 43.7°F6.5°C 79% Calm Calm -- 30.28 in1025.4 mb - 0.00 in0.0 mm 0.00 in0.0 mm
02:52 AM 49.8°F9.9°C 43.5°F6.4°C 79% Calm Calm -- 30.28 in1025.4 mb - 0.00 in0.0 mm 0.00 in0.0 mm
02:57 AM 49.8°F9.9°C 43.5°F6.4°C 79% Calm Calm -- 30.28 in1025.4 mb - 0.00 in0.0 mm 0.00 in0.0 mm
03:02 AM 49.6°F9.8°C 43.7°F6.5°C 80% Calm Calm -- 30.28 in1025.4 mb - 0.00 in0.0 mm 0.00 in0.0 mm
03:07 AM 49.6°F9.8°C 43.7°F6.5°C 80% Calm Calm -- 30.28 in1025.4 mb - 0.00 in0.0 mm 0.00 in0.0 mm
03:12 AM 49.5°F9.7°C 43.5°F6.4°C 80% Calm Calm -- 30.25 in1024.4 mb - 0.00 in0.0 mm 0.00 in0.0 mm
03:17 AM 49.5°F9.7°C 43.5°F6.4°C 80% Calm Calm -- 30.25 in1024.4 mb - 0.00 in0.0 mm 0.00 in0.0 mm
03:22 AM 49.5°F9.7°C 43.5°F6.4°C 80% Calm Calm -- 30.25 in1024.4 mb - 0.00 in0.0 mm 0.00 in0.0 mm
03:27 AM 49.3°F9.6°C 43.3°F6.3°C 80% Calm Calm -- 30.28 in1025.4 mb - 0.00 in0.0 mm 0.00 in0.0 mm
03:32 AM 49.3°F9.6°C 43.7°F6.5°C 81% Calm Calm -- 30.28 in1025.4 mb - 0.00 in0.0 mm 0.00 in0.0 mm
03:37 AM 49.3°F9.6°C 43.7°F6.5°C 81% Calm Calm -- 30.28 in1025.4 mb - 0.00 in0.0 mm 0.00 in0.0 mm
03:42 AM 49.3°F9.6°C 43.7°F6.5°C 81% Calm Calm -- 30.28 in1025.4 mb - 0.00 in0.0 mm 0.00 in0.0 mm
03:47 AM 49.3°F9.6°C 43.7°F6.5°C 81% Calm Calm -- 30.28 in1025.4 mb - 0.00 in0.0 mm 0.00 in0.0 mm
03:52 AM 49.1°F9.5°C 43.5°F6.4°C 81% Calm Calm -- 30.28 in1025.4 mb - 0.00 in0.0 mm 0.00 in0.0 mm
03:57 AM 48.9°F9.4°C 43.3°F6.3°C 81% Calm Calm -- 30.28 in1025.4 mb - 0.00 in0.0 mm 0.00 in0.0 mm
04:02 AM 48.9°F9.4°C 43.3°F6.3°C 81% Calm Calm -- 30.28 in1025.4 mb - 0.00 in0.0 mm 0.00 in0.0 mm
04:07 AM 48.9°F9.4°C 43.3°F6.3°C 81% Calm Calm -- 30.28 in1025.4 mb - 0.00 in0.0 mm 0.00 in0.0 mm
04:12 AM 48.7°F9.3°C 43.2°F6.2°C 81% Calm Calm -- 30.31 in1026.4 mb - 0.00 in0.0 mm 0.00 in0.0 mm
04:17 AM 48.7°F9.3°C 43.2°F6.2°C 81% Calm Calm -- 30.31 in1026.4 mb - 0.00 in0.0 mm 0.00 in0.0 mm
04:22 AM 48.7°F9.3°C 43.2°F6.2°C 81% Calm Calm -- 30.31 in1026.4 mb - 0.00 in0.0 mm 0.00 in0.0 mm
04:27 AM 48.7°F9.3°C 43.2°F6.2°C 81% Calm Calm -- 30.31 in1026.4 mb - 0.00 in0.0 mm 0.00 in0.0 mm
04:32 AM 48.7°F9.3°C 43.5°F6.4°C 82% Calm Calm -- 30.31 in1026.4 mb - 0.00 in0.0 mm 0.00 in0.0 mm
04:37 AM 48.6°F9.2°C 43.0°F6.1°C 81% Calm Calm -- 30.31 in1026.4 mb - 0.00 in0.0 mm 0.00 in0.0 mm
04:42 AM 48.6°F9.2°C 43.0°F6.1°C 81% Calm Calm -- 30.28 in1025.4 mb - 0.00 in0.0 mm 0.00 in0.0 mm
04:47 AM 48.4°F9.1°C 42.8°F6.0°C 81% Calm Calm -- 30.28 in1025.4 mb - 0.00 in0.0 mm 0.00 in0.0 mm
04:52 AM 48.2°F9.0°C 42.6°F5.9°C 81% Calm Calm -- 30.28 in1025.4 mb - 0.00 in0.0 mm 0.00 in0.0 mm
04:57 AM 48.0°F8.9°C 42.4°F5.8°C 81% Calm Calm -- 30.28 in1025.4 mb - 0.00 in0.0 mm 0.00 in0.0 mm
05:02 AM 48.0°F8.9°C 42.4°F5.8°C 81% Calm Calm -- 30.28 in1025.4 mb - 0.00 in0.0 mm 0.00 in0.0 mm
05:07 AM 47.8°F8.8°C 42.3°F5.7°C 81% Calm Calm -- 30.28 in1025.4 mb - 0.00 in0.0 mm 0.00 in0.0 mm
05:12 AM 47.8°F8.8°C 42.3°F5.7°C 81% Calm Calm -- 30.25 in1024.4 mb - 0.00 in0.0 mm 0.00 in0.0 mm
05:17 AM 47.8°F8.8°C 42.3°F5.7°C 81% Calm Calm -- 30.25 in1024.4 mb - 0.00 in0.0 mm 0.00 in0.0 mm
05:22 AM 47.8°F8.8°C 42.3°F5.7°C 81% Calm Calm -- 30.25 in1024.4 mb - 0.00 in0.0 mm 0.00 in0.0 mm
05:27 AM 47.8°F8.8°C 42.6°F5.9°C 82% Calm Calm -- 30.28 in1025.4 mb - 0.00 in0.0 mm 0.00 in0.0 mm
05:32 AM 47.7°F8.7°C 42.4°F5.8°C 82% Calm Calm -- 30.28 in1025.4 mb - 0.00 in0.0 mm 0.00 in0.0 mm
05:37 AM 47.7°F8.7°C 42.4°F5.8°C 82% Calm Calm -- 30.28 in1025.4 mb - 0.00 in0.0 mm 0.00 in0.0 mm
05:42 AM 47.8°F8.8°C 42.6°F5.9°C 82% Calm Calm -- 30.28 in1025.4 mb - 0.00 in0.0 mm 0.00 in0.0 mm
05:47 AM 47.8°F8.8°C 43.0°F6.1°C 83% Calm Calm -- 30.28 in1025.4 mb - 0.00 in0.0 mm 0.00 in0.0 mm
05:52 AM 47.7°F8.7°C 42.4°F5.8°C 82% Calm Calm -- 30.28 in1025.4 mb - 0.00 in0.0 mm 0.00 in0.0 mm
05:57 AM 47.7°F8.7°C 42.4°F5.8°C 82% Calm Calm -- 30.28 in1025.4 mb - 0.00 in0.0 mm 0.00 in0.0 mm
06:02 AM 47.5°F8.6°C 42.3°F5.7°C 82% Calm Calm -- 30.28 in1025.4 mb - 0.00 in0.0 mm 0.00 in0.0 mm
06:07 AM 47.3°F8.5°C 42.1°F5.6°C 82% Calm Calm -- 30.28 in1025.4 mb - 0.00 in0.0 mm 0.00 in0.0 mm
06:12 AM 47.3°F8.5°C 42.1°F5.6°C 82% Calm Calm -- 30.25 in1024.4 mb - 0.00 in0.0 mm 0.00 in0.0 mm
06:17 AM 47.1°F8.4°C 41.9°F5.5°C 82% Calm Calm -- 30.25 in1024.4 mb - 0.00 in0.0 mm 0.00 in0.0 mm
06:22 AM 47.1°F8.4°C 41.9°F5.5°C 82% Calm Calm -- 30.25 in1024.4 mb - 0.00 in0.0 mm 0.00 in0.0 mm
06:27 AM 47.1°F8.4°C 41.9°F5.5°C 82% Calm Calm -- 30.28 in1025.4 mb - 0.00 in0.0 mm 0.00 in0.0 mm
06:32 AM 47.3°F8.5°C 42.4°F5.8°C 83% Calm Calm -- 30.28 in1025.4 mb - 0.00 in0.0 mm 0.00 in0.0 mm
06:37 AM 47.3°F8.5°C 42.4°F5.8°C 83% Calm Calm -- 30.28 in1025.4 mb - 0.00 in0.0 mm 0.00 in0.0 mm
06:42 AM 47.1°F8.4°C 41.9°F5.5°C 82% Calm Calm -- 30.28 in1025.4 mb - 0.00 in0.0 mm 0.00 in0.0 mm
06:47 AM 46.9°F8.3°C 41.7°F5.4°C 82% Calm Calm -- 30.28 in1025.4 mb - 0.00 in0.0 mm 0.00 in0.0 mm
06:52 AM 46.8°F8.2°C 41.5°F5.3°C 82% Calm Calm -- 30.28 in1025.4 mb - 0.00 in0.0 mm 0.00 in0.0 mm
06:57 AM 46.8°F8.2°C 41.5°F5.3°C 82% Calm Calm -- 30.28 in1025.4 mb - 0.00 in0.0 mm 0.00 in0.0 mm
07:02 AM 46.8°F8.2°C 41.5°F5.3°C 82% Calm Calm -- 30.28 in1025.4 mb - 0.00 in0.0 mm 0.00 in0.0 mm
07:07 AM 46.6°F8.1°C 41.4°F5.2°C 82% Calm Calm -- 30.28 in1025.4 mb - 0.00 in0.0 mm 0.00 in0.0 mm
07:12 AM 46.6°F8.1°C 41.4°F5.2°C 82% Calm Calm -- 30.28 in1025.4 mb - 0.00 in0.0 mm 0.00 in0.0 mm
07:17 AM 46.6°F8.1°C 41.4°F5.2°C 82% Calm Calm -- 30.28 in1025.4 mb - 0.00 in0.0 mm 0.00 in0.0 mm
07:22 AM 46.6°F8.1°C 41.4°F5.2°C 82% Calm Calm -- 30.28 in1025.4 mb - 0.00 in0.0 mm 0.00 in0.0 mm
07:27 AM 46.6°F8.1°C 41.4°F5.2°C 82% Calm Calm -- 30.28 in1025.4 mb - 0.00 in0.0 mm 0.00 in0.0 mm
07:32 AM 46.8°F8.2°C 41.9°F5.5°C 83% Calm Calm -- 30.28 in1025.4 mb - 0.00 in0.0 mm 0.00 in0.0 mm
07:37 AM 46.9°F8.3°C 42.1°F5.6°C 83% Calm Calm -- 30.28 in1025.4 mb - 0.00 in0.0 mm 0.00 in0.0 mm
07:42 AM 47.3°F8.5°C 42.4°F5.8°C 83% Calm Calm -- 30.28 in1025.4 mb - 0.00 in0.0 mm 0.00 in0.0 mm
07:47 AM 47.7°F8.7°C 43.2°F6.2°C 84% Calm Calm -- 30.28 in1025.4 mb - 0.00 in0.0 mm 0.00 in0.0 mm
07:52 AM 48.2°F9.0°C 43.5°F6.4°C 84% Calm Calm -- 30.28 in1025.4 mb - 0.00 in0.0 mm 0.00 in0.0 mm
07:57 AM 48.7°F9.3°C 44.1°F6.7°C 84% Calm Calm -- 30.28 in1025.4 mb - 0.00 in0.0 mm 0.00 in0.0 mm
08:02 AM 49.3°F9.6°C 45.0°F7.2°C 85% Calm Calm -- 30.28 in1025.4 mb - 0.00 in0.0 mm 0.00 in0.0 mm
08:07 AM 49.8°F9.9°C 45.5°F7.5°C 85% Calm Calm -- 30.28 in1025.4 mb - 0.00 in0.0 mm 0.00 in0.0 mm
08:12 AM 50.0°F10.0°C 45.7°F7.6°C 85% Calm Calm -- 30.31 in1026.4 mb - 0.00 in0.0 mm 0.00 in0.0 mm
08:17 AM 50.5°F10.3°C 46.2°F7.9°C 85% Calm Calm -- 30.31 in1026.4 mb - 0.00 in0.0 mm 0.00 in0.0 mm
08:22 AM 51.1°F10.6°C 47.1°F8.4°C 86% Calm Calm -- 30.31 in1026.4 mb - 0.00 in0.0 mm 0.00 in0.0 mm
08:27 AM 51.8°F11.0°C 47.5°F8.6°C 85% Calm Calm -- 30.31 in1026.4 mb - 0.00 in0.0 mm 0.00 in0.0 mm
08:32 AM 52.2°F11.2°C 47.8°F8.8°C 85% Calm Calm -- 30.31 in1026.4 mb - 0.00 in0.0 mm 0.00 in0.0 mm
08:37 AM 52.3°F11.3°C 47.7°F8.7°C 84% Calm Calm -- 30.31 in1026.4 mb - 0.00 in0.0 mm 0.00 in0.0 mm
08:42 AM 52.7°F11.5°C 48.0°F8.9°C 84% Calm Calm -- 30.31 in1026.4 mb - 0.00 in0.0 mm 0.00 in0.0 mm
08:47 AM 53.4°F11.9°C 48.7°F9.3°C 84% Calm Calm -- 30.31 in1026.4 mb - 0.00 in0.0 mm 0.00 in0.0 mm
08:52 AM 54.3°F12.4°C 49.6°F9.8°C 84% Calm Calm -- 30.31 in1026.4 mb - 0.00 in0.0 mm 0.00 in0.0 mm
08:57 AM 54.9°F12.7°C 50.2°F10.1°C 84% Calm Calm -- 30.31 in1026.4 mb - 0.00 in0.0 mm 0.00 in0.0 mm
09:02 AM 55.4°F13.0°C 50.0°F10.0°C 82% Calm Calm -- 30.31 in1026.4 mb - 0.00 in0.0 mm 0.00 in0.0 mm
09:07 AM 55.6°F13.1°C 49.5°F9.7°C 80% Calm Calm -- 30.31 in1026.4 mb - 0.00 in0.0 mm 0.00 in0.0 mm
09:12 AM 56.3°F13.5°C 50.5°F10.3°C 81% Calm Calm -- 30.31 in1026.4 mb - 0.00 in0.0 mm 0.00 in0.0 mm
09:17 AM 57.0°F13.9°C 51.3°F10.7°C 81% Calm Calm -- 30.31 in1026.4 mb - 0.00 in0.0 mm 0.00 in0.0 mm
09:22 AM 57.4°F14.1°C 50.9°F10.5°C 79% Calm Calm -- 30.31 in1026.4 mb - 0.00 in0.0 mm 0.00 in0.0 mm
09:27 AM 58.5°F14.7°C 52.0°F11.1°C 79% Calm Calm -- 30.31 in1026.4 mb - 0.00 in0.0 mm 0.00 in0.0 mm
09:32 AM 59.2°F15.1°C 52.7°F11.5°C 79% Calm Calm -- 30.31 in1026.4 mb - 0.00 in0.0 mm 0.00 in0.0 mm
09:37 AM 59.7°F15.4°C 52.5°F11.4°C 77% Calm Calm -- 30.31 in1026.4 mb - 0.00 in0.0 mm 0.00 in0.0 mm
09:42 AM 60.1°F15.6°C 52.5°F11.4°C 76% Calm Calm -- 30.31 in1026.4 mb - 0.00 in0.0 mm 0.00 in0.0 mm
09:47 AM 60.1°F15.6°C 51.8°F11.0°C 74% Calm Calm -- 30.31 in1026.4 mb - 0.00 in0.0 mm 0.00 in0.0 mm
09:52 AM 60.3°F15.7°C 51.3°F10.7°C 72% Calm Calm -- 30.31 in1026.4 mb - 0.00 in0.0 mm 0.00 in0.0 mm
09:57 AM 60.8°F16.0°C 52.5°F11.4°C 74% Calm Calm -- 30.31 in1026.4 mb - 0.00 in0.0 mm 0.00 in0.0 mm
10:02 AM 61.7°F16.5°C 53.8°F12.1°C 75% Calm Calm -- 30.31 in1026.4 mb - 0.00 in0.0 mm 0.00 in0.0 mm
10:07 AM 62.4°F16.9°C 54.0°F12.2°C 74% Calm Calm -- 30.31 in1026.4 mb - 0.00 in0.0 mm 0.00 in0.0 mm
10:12 AM 63.5°F17.5°C 54.3°F12.4°C 72% Calm Calm -- 30.31 in1026.4 mb - 0.00 in0.0 mm 0.00 in0.0 mm
10:17 AM 64.2°F17.9°C 54.3°F12.4°C 70% Calm Calm -- 30.31 in1026.4 mb - 0.00 in0.0 mm 0.00 in0.0 mm
10:22 AM 64.9°F18.3°C 54.9°F12.7°C 70% Calm Calm -- 30.31 in1026.4 mb - 0.00 in0.0 mm 0.00 in0.0 mm
10:27 AM 65.3°F18.5°C 54.1°F12.3°C 67% Calm Calm -- 30.31 in1026.4 mb - 0.00 in0.0 mm 0.00 in0.0 mm
10:32 AM 65.7°F18.7°C 54.9°F12.7°C 68% Calm Calm -- 30.31 in1026.4 mb - 0.00 in0.0 mm 0.00 in0.0 mm
10:37 AM 66.4°F19.1°C 54.7°F12.6°C 66% Calm Calm -- 30.31 in1026.4 mb - 0.00 in0.0 mm 0.00 in0.0 mm
10:42 AM 67.3°F19.6°C 55.9°F13.3°C 67% Calm Calm -- 30.31 in1026.4 mb - 0.00 in0.0 mm 0.00 in0.0 mm
10:47 AM 68.0°F20.0°C 55.8°F13.2°C 65% Calm Calm -- 30.31 in1026.4 mb - 0.00 in0.0 mm 0.00 in0.0 mm
10:52 AM 68.2°F20.1°C 55.6°F13.1°C 64% Calm Calm -- 30.31 in1026.4 mb - 0.00 in0.0 mm 0.00 in0.0 mm
10:57 AM 69.1°F20.6°C 56.8°F13.8°C 65% 0.9 mph NE1.4 kmh NE 3.8 mph6.1 kmh 30.31 in1026.4 mb - 0.00 in0.0 mm 0.00 in0.0 mm
11:02 AM 69.4°F20.8°C 56.7°F13.7°C 64% 0.2 mph N0.3 kmh N 2.2 mph3.5 kmh 30.31 in1026.4 mb - 0.00 in0.0 mm 0.00 in0.0 mm
11:07 AM 70.0°F21.1°C 57.2°F14.0°C 64% 0.2 mph NNE0.3 kmh NNE 2.7 mph4.3 kmh 30.31 in1026.4 mb - 0.00 in0.0 mm 0.00 in0.0 mm
11:12 AM 70.5°F21.4°C 57.7°F14.3°C 64% 0.4 mph NNE0.6 kmh NNE 3.4 mph5.5 kmh 30.31 in1026.4 mb - 0.00 in0.0 mm 0.00 in0.0 mm
11:17 AM 70.9°F21.6°C 57.7°F14.3°C 63% 0.4 mph NNW0.6 kmh NNW 2.2 mph3.5 kmh 30.31 in1026.4 mb - 0.00 in0.0 mm 0.00 in0.0 mm
11:22 AM 71.2°F21.8°C 57.9°F14.4°C 63% 2.2 mph N3.5 kmh N 6.7 mph10.8 kmh 30.31 in1026.4 mb - 0.00 in0.0 mm 0.00 in0.0 mm
11:27 AM 71.8°F22.1°C 58.1°F14.5°C 62% 1.6 mph NNW2.6 kmh NNW 5.8 mph9.3 kmh 30.31 in1026.4 mb - 0.00 in0.0 mm 0.00 in0.0 mm
11:32 AM 72.7°F22.6°C 58.5°F14.7°C 61% 3.4 mph NE5.5 kmh NE 7.8 mph12.6 kmh 30.31 in1026.4 mb - 0.00 in0.0 mm 0.00 in0.0 mm
11:37 AM 73.0°F22.8°C 58.3°F14.6°C 60% 2.0 mph NE3.2 kmh NE 7.2 mph11.6 kmh 30.31 in1026.4 mb - 0.00 in0.0 mm 0.00 in0.0 mm
11:42 AM 73.2°F22.9°C 57.6°F14.2°C 58% 3.8 mph NNE6.1 kmh NNE 7.6 mph12.2 kmh 30.31 in1026.4 mb - 0.00 in0.0 mm 0.00 in0.0 mm
11:47 AM 73.6°F23.1°C 58.5°F14.7°C 59% 5.1 mph NNE8.2 kmh NNE 8.5 mph13.7 kmh 30.31 in1026.4 mb - 0.00 in0.0 mm 0.00 in0.0 mm
11:52 AM 74.1°F23.4°C 57.9°F14.4°C 57% 4.0 mph NE6.4 kmh NE 6.3 mph10.1 kmh 30.31 in1026.4 mb - 0.00 in0.0 mm 0.00 in0.0 mm
11:57 AM 74.1°F23.4°C 57.9°F14.4°C 57% 4.9 mph NNE7.9 kmh NNE 9.2 mph14.8 kmh 30.28 in1025.4 mb - 0.00 in0.0 mm 0.00 in0.0 mm
12:02 PM 74.7°F23.7°C 58.5°F14.7°C 57% 5.4 mph N8.7 kmh N 8.3 mph13.4 kmh 30.28 in1025.4 mb - 0.00 in0.0 mm 0.00 in0.0 mm
12:07 PM 74.8°F23.8°C 58.1°F14.5°C 56% 5.6 mph NE9.0 kmh NE 8.7 mph14.0 kmh 30.28 in1025.4 mb - 0.00 in0.0 mm 0.00 in0.0 mm
12:12 PM 75.2°F24.0°C 57.9°F14.4°C 55% 5.6 mph N9.0 kmh N 9.6 mph15.4 kmh 30.28 in1025.4 mb - 0.00 in0.0 mm 0.00 in0.0 mm
12:17 PM 75.6°F24.2°C 57.7°F14.3°C 54% 5.8 mph N9.3 kmh N 8.9 mph14.3 kmh 30.28 in1025.4 mb - 0.00 in0.0 mm 0.00 in0.0 mm
12:22 PM 75.6°F24.2°C 57.7°F14.3°C 54% 4.9 mph NNE7.9 kmh NNE 8.3 mph13.4 kmh 30.28 in1025.4 mb - 0.00 in0.0 mm 0.00 in0.0 mm
12:27 PM 76.1°F24.5°C 58.3°F14.6°C 54% 6.5 mph NE10.5 kmh NE 9.2 mph14.8 kmh 30.28 in1025.4 mb - 0.00 in0.0 mm 0.00 in0.0 mm
12:32 PM 76.3°F24.6°C 57.9°F14.4°C 53% 5.8 mph N9.3 kmh N 5.8 mph9.3 kmh 30.28 in1025.4 mb - 0.00 in0.0 mm 0.00 in0.0 mm
12:37 PM 76.5°F24.7°C 57.6°F14.2°C 52% 6.0 mph NNW9.7 kmh NNW 9.4 mph15.1 kmh 30.28 in1025.4 mb - 0.00 in0.0 mm 0.00 in0.0 mm
12:42 PM 76.8°F24.9°C 57.9°F14.4°C 52% 6.3 mph NNE10.1 kmh NNE 9.2 mph14.8 kmh 30.28 in1025.4 mb - 0.00 in0.0 mm 0.00 in0.0 mm
12:47 PM 76.8°F24.9°C 57.4°F14.1°C 51% 6.3 mph N10.1 kmh N 11.4 mph18.3 kmh 30.28 in1025.4 mb - 0.00 in0.0 mm 0.00 in0.0 mm
12:57 PM 77.5°F25.3°C 57.4°F14.1°C 50% 6.3 mph N10.1 kmh N 9.2 mph14.8 kmh 30.31 in1026.4 mb - 0.00 in0.0 mm 0.00 in0.0 mm
01:07 PM 78.1°F25.6°C 57.4°F14.1°C 49% 5.1 mph NNE8.2 kmh NNE 8.7 mph14.0 kmh 30.31 in1026.4 mb - 0.00 in0.0 mm 0.00 in0.0 mm
01:12 PM 78.3°F25.7°C 57.0°F13.9°C 48% 5.1 mph NNE8.2 kmh NNE 5.1 mph8.2 kmh 30.31 in1026.4 mb - 0.00 in0.0 mm 0.00 in0.0 mm
01:17 PM 78.4°F25.8°C 57.2°F14.0°C 48% 6.3 mph NNE10.1 kmh NNE 10.5 mph16.9 kmh 30.31 in1026.4 mb - 0.00 in0.0 mm 0.00 in0.0 mm
01:22 PM 78.6°F25.9°C 56.7°F13.7°C 47% 6.5 mph N10.5 kmh N 10.1 mph16.3 kmh 30.31 in1026.4 mb - 0.00 in0.0 mm 0.00 in0.0 mm
01:27 PM 78.8°F26.0°C 56.3°F13.5°C 46% 6.5 mph N10.5 kmh N 10.3 mph16.6 kmh 30.28 in1025.4 mb - 0.00 in0.0 mm 0.00 in0.0 mm
01:32 PM 79.2°F26.2°C 57.2°F14.0°C 47% 5.6 mph N9.0 kmh N 5.6 mph9.0 kmh 30.28 in1025.4 mb - 0.00 in0.0 mm 0.00 in0.0 mm
01:37 PM 79.2°F26.2°C 56.7°F13.7°C 46% 6.7 mph NNE10.8 kmh NNE 10.7 mph17.2 kmh 30.28 in1025.4 mb - 0.00 in0.0 mm 0.00 in0.0 mm
01:42 PM 79.5°F26.4°C 57.0°F13.9°C 46% 6.9 mph NE11.1 kmh NE 11.0 mph17.7 kmh 30.28 in1025.4 mb - 0.00 in0.0 mm 0.00 in0.0 mm
01:47 PM 79.5°F26.4°C 56.3°F13.5°C 45% 6.7 mph NNE10.8 kmh NNE 10.5 mph16.9 kmh 30.28 in1025.4 mb - 0.00 in0.0 mm 0.00 in0.0 mm
01:52 PM 79.5°F26.4°C 56.3°F13.5°C 45% 6.5 mph N10.5 kmh N 10.7 mph17.2 kmh 30.28 in1025.4 mb - 0.00 in0.0 mm 0.00 in0.0 mm
01:57 PM 79.5°F26.4°C 56.3°F13.5°C 45% 8.1 mph NNE13.0 kmh NNE 12.1 mph19.5 kmh 30.25 in1024.4 mb - 0.00 in0.0 mm 0.00 in0.0 mm
02:02 PM 79.7°F26.5°C 56.5°F13.6°C 45% 7.8 mph N12.6 kmh N 13.0 mph20.9 kmh 30.25 in1024.4 mb - 0.00 in0.0 mm 0.00 in0.0 mm
02:07 PM 79.7°F26.5°C 56.5°F13.6°C 45% 7.4 mph N11.9 kmh N 10.5 mph16.9 kmh 30.25 in1024.4 mb - 0.00 in0.0 mm 0.00 in0.0 mm
02:12 PM 79.9°F26.6°C 56.7°F13.7°C 45% 6.9 mph N11.1 kmh N 14.1 mph22.7 kmh 30.25 in1024.4 mb - 0.00 in0.0 mm 0.00 in0.0 mm
02:17 PM 80.2°F26.8°C 57.0°F13.9°C 45% 8.7 mph NNE14.0 kmh NNE 12.1 mph19.5 kmh 30.25 in1024.4 mb - 0.00 in0.0 mm 0.00 in0.0 mm
02:22 PM 80.2°F26.8°C 57.0°F13.9°C 45% 7.6 mph 12.2 kmh 7.6 mph12.2 kmh 30.25 in1024.4 mb - 0.00 in0.0 mm 0.00 in0.0 mm
02:27 PM 80.6°F27.0°C 56.7°F13.7°C 44% 8.5 mph NNE13.7 kmh NNE 14.1 mph22.7 kmh 30.25 in1024.4 mb - 0.00 in0.0 mm 0.00 in0.0 mm
02:32 PM 80.6°F27.0°C 56.7°F13.7°C 44% 7.6 mph N12.2 kmh N 10.5 mph16.9 kmh 30.25 in1024.4 mb - 0.00 in0.0 mm 0.00 in0.0 mm
02:37 PM 80.6°F27.0°C 56.7°F13.7°C 44% 8.1 mph N13.0 kmh N 13.2 mph21.2 kmh 30.25 in1024.4 mb - 0.00 in0.0 mm 0.00 in0.0 mm
02:42 PM 80.6°F27.0°C 56.7°F13.7°C 44% 9.2 mph NE14.8 kmh NE 12.1 mph19.5 kmh 30.25 in1024.4 mb - 0.00 in0.0 mm 0.00 in0.0 mm
02:47 PM 80.8°F27.1°C 56.8°F13.8°C 44% 8.3 mph N13.4 kmh N 13.4 mph21.6 kmh 30.25 in1024.4 mb - 0.00 in0.0 mm 0.00 in0.0 mm
02:52 PM 80.8°F27.1°C 56.1°F13.4°C 43% 7.6 mph NNE12.2 kmh NNE 11.9 mph19.2 kmh 30.25 in1024.4 mb - 0.00 in0.0 mm 0.00 in0.0 mm
02:57 PM 80.8°F27.1°C 56.1°F13.4°C 43% 7.6 mph N12.2 kmh N 12.5 mph20.1 kmh 30.25 in1024.4 mb - 0.00 in0.0 mm 0.00 in0.0 mm
03:02 PM 80.8°F27.1°C 56.1°F13.4°C 43% 8.1 mph NE13.0 kmh NE 12.1 mph19.5 kmh 30.25 in1024.4 mb - 0.00 in0.0 mm 0.00 in0.0 mm
03:07 PM 80.8°F27.1°C 56.1°F13.4°C 43% 8.7 mph NNE14.0 kmh NNE 13.4 mph21.6 kmh 30.25 in1024.4 mb - 0.00 in0.0 mm 0.00 in0.0 mm
03:12 PM 80.8°F27.1°C 56.1°F13.4°C 43% 9.4 mph N15.1 kmh N 14.5 mph23.3 kmh 30.22 in1023.4 mb - 0.00 in0.0 mm 0.00 in0.0 mm
03:17 PM 80.8°F27.1°C 56.1°F13.4°C 43% 8.1 mph NNE13.0 kmh NNE 12.1 mph19.5 kmh 30.22 in1023.4 mb - 0.00 in0.0 mm 0.00 in0.0 mm
03:22 PM 81.0°F27.2°C 56.3°F13.5°C 43% 9.2 mph N14.8 kmh N 13.2 mph21.2 kmh 30.22 in1023.4 mb - 0.00 in0.0 mm 0.00 in0.0 mm
03:27 PM 81.0°F27.2°C 55.8°F13.2°C 42% 7.4 mph N11.9 kmh N 11.9 mph19.2 kmh 30.25 in1024.4 mb - 0.00 in0.0 mm 0.00 in0.0 mm
03:32 PM 81.0°F27.2°C 56.3°F13.5°C 43% 8.5 mph NE13.7 kmh NE 15.9 mph25.6 kmh 30.25 in1024.4 mb - 0.00 in0.0 mm 0.00 in0.0 mm
03:37 PM 81.0°F27.2°C 55.8°F13.2°C 42% 7.4 mph NNE11.9 kmh NNE 13.0 mph20.9 kmh 30.25 in1024.4 mb - 0.00 in0.0 mm 0.00 in0.0 mm
03:42 PM 80.8°F27.1°C 55.6°F13.1°C 42% 8.5 mph NNE13.7 kmh NNE 14.3 mph23.0 kmh 30.22 in1023.4 mb - 0.00 in0.0 mm 0.00 in0.0 mm
03:47 PM 80.8°F27.1°C 55.6°F13.1°C 42% 8.3 mph NNE13.4 kmh NNE 12.5 mph20.1 kmh 30.22 in1023.4 mb - 0.00 in0.0 mm 0.00 in0.0 mm
03:52 PM 80.6°F27.0°C 55.4°F13.0°C 42% 8.5 mph N13.7 kmh N 13.4 mph21.6 kmh 30.22 in1023.4 mb - 0.00 in0.0 mm 0.00 in0.0 mm
03:57 PM 80.6°F27.0°C 54.7°F12.6°C 41% 8.5 mph NNE13.7 kmh NNE 13.0 mph20.9 kmh 30.22 in1023.4 mb - 0.00 in0.0 mm 0.00 in0.0 mm
04:02 PM 80.4°F26.9°C 55.9°F13.3°C 43% 8.5 mph NNE13.7 kmh NNE 12.1 mph19.5 kmh 30.22 in1023.4 mb - 0.00 in0.0 mm 0.00 in0.0 mm
04:07 PM 80.2°F26.8°C 55.8°F13.2°C 43% 9.2 mph N14.8 kmh N 14.1 mph22.7 kmh 30.22 in1023.4 mb - 0.00 in0.0 mm 0.00 in0.0 mm
04:12 PM 80.1°F26.7°C 55.6°F13.1°C 43% 8.5 mph NE13.7 kmh NE 14.5 mph23.3 kmh 30.25 in1024.4 mb - 0.00 in0.0 mm 0.00 in0.0 mm
04:17 PM 79.9°F26.6°C 55.4°F13.0°C 43% 7.4 mph NNE11.9 kmh NNE 11.9 mph19.2 kmh 30.25 in1024.4 mb - 0.00 in0.0 mm 0.00 in0.0 mm
04:22 PM 79.7°F26.5°C 55.9°F13.3°C 44% 6.7 mph NNE10.8 kmh NNE 10.5 mph16.9 kmh 30.25 in1024.4 mb - 0.00 in0.0 mm 0.00 in0.0 mm
04:27 PM 79.7°F26.5°C 55.9°F13.3°C 44% 7.2 mph NE11.6 kmh NE 10.3 mph16.6 kmh 30.22 in1023.4 mb - 0.00 in0.0 mm 0.00 in0.0 mm
04:32 PM 79.5°F26.4°C 55.8°F13.2°C 44% 6.0 mph NNE9.7 kmh NNE 11.0 mph17.7 kmh 30.22 in1023.4 mb - 0.00 in0.0 mm 0.00 in0.0 mm
04:37 PM 79.2°F26.2°C 55.4°F13.0°C 44% 7.2 mph N11.6 kmh N 12.1 mph19.5 kmh 30.22 in1023.4 mb - 0.00 in0.0 mm 0.00 in0.0 mm
04:42 PM 78.8°F26.0°C 55.0°F12.8°C 44% 7.4 mph N11.9 kmh N 11.9 mph19.2 kmh 30.22 in1023.4 mb - 0.00 in0.0 mm 0.00 in0.0 mm
04:47 PM 78.4°F25.8°C 54.7°F12.6°C 44% 7.4 mph NNE11.9 kmh NNE 11.6 mph18.7 kmh 30.22 in1023.4 mb - 0.00 in0.0 mm 0.00 in0.0 mm
04:52 PM 78.3°F25.7°C 54.5°F12.5°C 44% 6.0 mph NNE9.7 kmh NNE 10.7 mph17.2 kmh 30.22 in1023.4 mb - 0.00 in0.0 mm 0.00 in0.0 mm
04:57 PM 77.9°F25.5°C 54.3°F12.4°C 44% 6.7 mph NNE10.8 kmh NNE 11.0 mph17.7 kmh 30.25 in1024.4 mb - 0.00 in0.0 mm 0.00 in0.0 mm
05:02 PM 77.5°F25.3°C 54.0°F12.2°C 44% 6.9 mph N11.1 kmh N 10.1 mph16.3 kmh 30.25 in1024.4 mb - 0.00 in0.0 mm 0.00 in0.0 mm
05:07 PM 77.2°F25.1°C 54.1°F12.3°C 45% 7.6 mph N12.2 kmh N 11.6 mph18.7 kmh 30.25 in1024.4 mb - 0.00 in0.0 mm 0.00 in0.0 mm
05:12 PM 77.0°F25.0°C 54.0°F12.2°C 45% 7.2 mph NNE11.6 kmh NNE 11.0 mph17.7 kmh 30.25 in1024.4 mb - 0.00 in0.0 mm 0.00 in0.0 mm
05:17 PM 76.5°F24.7°C 54.1°F12.3°C 46% 5.4 mph NNE8.7 kmh NNE 8.7 mph14.0 kmh 30.25 in1024.4 mb - 0.00 in0.0 mm 0.00 in0.0 mm
05:22 PM 75.9°F24.4°C 53.6°F12.0°C 46% 5.1 mph N8.2 kmh N 5.1 mph8.2 kmh 30.25 in1024.4 mb - 0.00 in0.0 mm 0.00 in0.0 mm
05:27 PM 75.6°F24.2°C 53.4°F11.9°C 46% 5.8 mph N9.3 kmh N 11.2 mph18.0 kmh 30.25 in1024.4 mb - 0.00 in0.0 mm 0.00 in0.0 mm
05:32 PM 75.0°F23.9°C 53.4°F11.9°C 47% 6.3 mph N10.1 kmh N 9.6 mph15.4 kmh 30.25 in1024.4 mb - 0.00 in0.0 mm 0.00 in0.0 mm
05:37 PM 74.5°F23.6°C 52.9°F11.6°C 47% 6.7 mph N10.8 kmh N 11.0 mph17.7 kmh 30.25 in1024.4 mb - 0.00 in0.0 mm 0.00 in0.0 mm
05:42 PM 73.9°F23.3°C 52.5°F11.4°C 47% 5.4 mph NE8.7 kmh NE 9.4 mph15.1 kmh 30.25 in1024.4 mb - 0.00 in0.0 mm 0.00 in0.0 mm
05:47 PM 73.4°F23.0°C 52.5°F11.4°C 48% 5.1 mph NNE8.2 kmh NNE 10.3 mph16.6 kmh 30.25 in1024.4 mb - 0.00 in0.0 mm 0.00 in0.0 mm
05:52 PM 72.9°F22.7°C 52.5°F11.4°C 49% 4.0 mph NE6.4 kmh NE 6.9 mph11.1 kmh 30.25 in1024.4 mb - 0.00 in0.0 mm 0.00 in0.0 mm
05:57 PM 72.5°F22.5°C 52.3°F11.3°C 49% 3.6 mph N5.8 kmh N 7.4 mph11.9 kmh 30.25 in1024.4 mb - 0.00 in0.0 mm 0.00 in0.0 mm
06:02 PM 72.1°F22.3°C 52.5°F11.4°C 50% 4.0 mph NNE6.4 kmh NNE 6.9 mph11.1 kmh 30.25 in1024.4 mb - 0.00 in0.0 mm 0.00 in0.0 mm
06:07 PM 71.8°F22.1°C 52.2°F11.2°C 50% 3.6 mph NE5.8 kmh NE 7.4 mph11.9 kmh 30.25 in1024.4 mb - 0.00 in0.0 mm 0.00 in0.0 mm
06:12 PM 71.4°F21.9°C 52.3°F11.3°C 51% 3.4 mph NNE5.5 kmh NNE 5.8 mph9.3 kmh 30.28 in1025.4 mb - 0.00 in0.0 mm 0.00 in0.0 mm
06:17 PM 71.1°F21.7°C 52.0°F11.1°C 51% 3.1 mph NNE5.0 kmh NNE 6.5 mph10.5 kmh 30.28 in1025.4 mb - 0.00 in0.0 mm 0.00 in0.0 mm
06:22 PM 70.7°F21.5°C 52.2°F11.2°C 52% 3.1 mph N5.0 kmh N 5.8 mph9.3 kmh 30.28 in1025.4 mb - 0.00 in0.0 mm 0.00 in0.0 mm
06:27 PM 70.3°F21.3°C 52.0°F11.1°C 52% 3.1 mph N5.0 kmh N 5.1 mph8.2 kmh 30.28 in1025.4 mb - 0.00 in0.0 mm 0.00 in0.0 mm
06:32 PM 70.0°F21.1°C 52.2°F11.2°C 53% 3.6 mph NNE5.8 kmh NNE 6.0 mph9.7 kmh 30.28 in1025.4 mb - 0.00 in0.0 mm 0.00 in0.0 mm
06:37 PM 69.8°F21.0°C 52.3°F11.3°C 54% 3.1 mph NNE5.0 kmh NNE 5.6 mph9.0 kmh 30.28 in1025.4 mb - 0.00 in0.0 mm 0.00 in0.0 mm
06:42 PM 69.4°F20.8°C 52.5°F11.4°C 55% 2.9 mph N4.7 kmh N 2.9 mph4.7 kmh 30.28 in1025.4 mb - 0.00 in0.0 mm 0.00 in0.0 mm
06:47 PM 69.1°F20.6°C 52.2°F11.2°C 55% 2.9 mph NNE4.7 kmh NNE 4.7 mph7.6 kmh 30.28 in1025.4 mb - 0.00 in0.0 mm 0.00 in0.0 mm
06:52 PM 68.9°F20.5°C 52.5°F11.4°C 56% 2.7 mph N4.3 kmh N 5.6 mph9.0 kmh 30.28 in1025.4 mb - 0.00 in0.0 mm 0.00 in0.0 mm
06:57 PM 68.5°F20.3°C 52.7°F11.5°C 57% 2.2 mph NE3.5 kmh NE 4.0 mph6.4 kmh 30.28 in1025.4 mb - 0.00 in0.0 mm 0.00 in0.0 mm
07:02 PM 68.4°F20.2°C 52.5°F11.4°C 57% 3.1 mph N5.0 kmh N 4.7 mph7.6 kmh 30.28 in1025.4 mb - 0.00 in0.0 mm 0.00 in0.0 mm
07:07 PM 68.0°F20.0°C 52.7°F11.5°C 58% 2.9 mph NE4.7 kmh NE 6.9 mph11.1 kmh 30.28 in1025.4 mb - 0.00 in0.0 mm 0.00 in0.0 mm
07:12 PM 67.6°F19.8°C 52.9°F11.6°C 59% 3.4 mph NNE5.5 kmh NNE 6.3 mph10.1 kmh 30.31 in1026.4 mb - 0.00 in0.0 mm 0.00 in0.0 mm
07:17 PM 67.3°F19.6°C 52.5°F11.4°C 59% 3.1 mph NE5.0 kmh NE 5.6 mph9.0 kmh 30.31 in1026.4 mb - 0.00 in0.0 mm 0.00 in0.0 mm
07:22 PM 66.9°F19.4°C 52.5°F11.4°C 60% 2.5 mph N4.0 kmh N 4.9 mph7.9 kmh 30.31 in1026.4 mb - 0.00 in0.0 mm 0.00 in0.0 mm
07:27 PM 66.6°F19.2°C 52.3°F11.3°C 60% 1.8 mph NNE2.9 kmh NNE 4.0 mph6.4 kmh 30.25 in1024.4 mb - 0.00 in0.0 mm 0.00 in0.0 mm
07:32 PM 66.2°F19.0°C 52.3°F11.3°C 61% 1.3 mph N2.1 kmh N 3.4 mph5.5 kmh 30.25 in1024.4 mb - 0.00 in0.0 mm 0.00 in0.0 mm
07:37 PM 65.8°F18.8°C 52.5°F11.4°C 62% 1.3 mph N2.1 kmh N 3.6 mph5.8 kmh 30.25 in1024.4 mb - 0.00 in0.0 mm 0.00 in0.0 mm
07:42 PM 65.3°F18.5°C 52.0°F11.1°C 62% 0.4 mph NNE0.6 kmh NNE 0.4 mph0.6 kmh 30.28 in1025.4 mb - 0.00 in0.0 mm 0.00 in0.0 mm
07:47 PM 64.9°F18.3°C 52.0°F11.1°C 63% Calm Calm -- 30.28 in1025.4 mb - 0.00 in0.0 mm 0.00 in0.0 mm
07:52 PM 64.4°F18.0°C 52.0°F11.1°C 64% Calm Calm -- 30.28 in1025.4 mb - 0.00 in0.0 mm 0.00 in0.0 mm
07:57 PM 64.0°F17.8°C 51.6°F10.9°C 64% Calm Calm -- 30.28 in1025.4 mb - 0.00 in0.0 mm 0.00 in0.0 mm
08:02 PM 63.7°F17.6°C 51.3°F10.7°C 64% Calm Calm -- 30.28 in1025.4 mb - 0.00 in0.0 mm 0.00 in0.0 mm
08:07 PM 63.3°F17.4°C 50.9°F10.5°C 64% Calm Calm -- 30.28 in1025.4 mb - 0.00 in0.0 mm 0.00 in0.0 mm
08:12 PM 63.1°F17.3°C 51.3°F10.7°C 65% Calm Calm -- 30.25 in1024.4 mb - 0.00 in0.0 mm 0.00 in0.0 mm
08:17 PM 62.6°F17.0°C 50.7°F10.4°C 65% Calm Calm -- 30.25 in1024.4 mb - 0.00 in0.0 mm 0.00 in0.0 mm
08:22 PM 62.1°F16.7°C 50.9°F10.5°C 67% Calm Calm -- 30.25 in1024.4 mb - 0.00 in0.0 mm 0.00 in0.0 mm
08:27 PM 61.9°F16.6°C 50.9°F10.5°C 67% Calm Calm -- 30.28 in1025.4 mb - 0.00 in0.0 mm 0.00 in0.0 mm
08:32 PM 61.5°F16.4°C 50.9°F10.5°C 68% Calm Calm -- 30.28 in1025.4 mb - 0.00 in0.0 mm 0.00 in0.0 mm
08:37 PM 61.2°F16.2°C 50.5°F10.3°C 68% Calm Calm -- 30.28 in1025.4 mb - 0.00 in0.0 mm 0.00 in0.0 mm
08:42 PM 60.8°F16.0°C 50.2°F10.1°C 68% Calm Calm -- 30.28 in1025.4 mb - 0.00 in0.0 mm 0.00 in0.0 mm
08:47 PM 60.4°F15.8°C 49.8°F9.9°C 68% Calm Calm -- 30.28 in1025.4 mb - 0.00 in0.0 mm 0.00 in0.0 mm
08:52 PM 60.1°F15.6°C 49.8°F9.9°C 69% Calm Calm -- 30.28 in1025.4 mb - 0.00 in0.0 mm 0.00 in0.0 mm
08:57 PM 59.7°F15.4°C 49.5°F9.7°C 69% Calm Calm -- 30.28 in1025.4 mb - 0.00 in0.0 mm 0.00 in0.0 mm
09:02 PM 59.5°F15.3°C 49.8°F9.9°C 70% Calm Calm -- 30.28 in1025.4 mb - 0.00 in0.0 mm 0.00 in0.0 mm
09:07 PM 59.2°F15.1°C 49.5°F9.7°C 70% Calm Calm -- 30.28 in1025.4 mb - 0.00 in0.0 mm 0.00 in0.0 mm
09:12 PM 58.8°F14.9°C 49.1°F9.5°C 70% Calm Calm -- 30.31 in1026.4 mb - 0.00 in0.0 mm 0.00 in0.0 mm
09:17 PM 58.6°F14.8°C 49.3°F9.6°C 71% Calm Calm -- 30.31 in1026.4 mb - 0.00 in0.0 mm 0.00 in0.0 mm
09:22 PM 58.3°F14.6°C 48.9°F9.4°C 71% Calm Calm -- 30.31 in1026.4 mb - 0.00 in0.0 mm 0.00 in0.0 mm
09:27 PM 58.1°F14.5°C 49.1°F9.5°C 72% Calm Calm -- 30.28 in1025.4 mb - 0.00 in0.0 mm 0.00 in0.0 mm
09:32 PM 57.7°F14.3°C 48.7°F9.3°C 72% Calm Calm -- 30.28 in1025.4 mb - 0.00 in0.0 mm 0.00 in0.0 mm
09:37 PM 57.6°F14.2°C 48.6°F9.2°C 72% Calm Calm -- 30.28 in1025.4 mb - 0.00 in0.0 mm 0.00 in0.0 mm
09:42 PM 57.2°F14.0°C 48.6°F9.2°C 73% Calm Calm -- 30.31 in1026.4 mb - 0.00 in0.0 mm 0.00 in0.0 mm
09:47 PM 57.0°F13.9°C 48.4°F9.1°C 73% Calm Calm -- 30.31 in1026.4 mb - 0.00 in0.0 mm 0.00 in0.0 mm
09:52 PM 56.8°F13.8°C 48.2°F9.0°C 73% Calm Calm -- 30.31 in1026.4 mb - 0.00 in0.0 mm 0.00 in0.0 mm
09:57 PM 56.5°F13.6°C 48.0°F8.9°C 73% Calm Calm -- 30.31 in1026.4 mb - 0.00 in0.0 mm 0.00 in0.0 mm
10:02 PM 56.3°F13.5°C 48.2°F9.0°C 74% Calm Calm -- 30.31 in1026.4 mb - 0.00 in0.0 mm 0.00 in0.0 mm
10:07 PM 56.1°F13.4°C 48.0°F8.9°C 74% Calm Calm -- 30.31 in1026.4 mb - 0.00 in0.0 mm 0.00 in0.0 mm
10:12 PM 55.9°F13.3°C 48.2°F9.0°C 75% Calm Calm -- 30.31 in1026.4 mb - 0.00 in0.0 mm 0.00 in0.0 mm
10:17 PM 55.6°F13.1°C 47.8°F8.8°C 75% Calm Calm -- 30.31 in1026.4 mb - 0.00 in0.0 mm 0.00 in0.0 mm
10:22 PM 55.6°F13.1°C 47.8°F8.8°C 75% Calm Calm -- 30.31 in1026.4 mb - 0.00 in0.0 mm 0.00 in0.0 mm
10:27 PM 55.4°F13.0°C 47.7°F8.7°C 75% Calm Calm -- 30.31 in1026.4 mb - 0.00 in0.0 mm 0.00 in0.0 mm
10:32 PM 55.2°F12.9°C 47.5°F8.6°C 75% Calm Calm -- 30.31 in1026.4 mb - 0.00 in0.0 mm 0.00 in0.0 mm
10:37 PM 55.0°F12.8°C 47.7°F8.7°C 76% Calm Calm -- 30.31 in1026.4 mb - 0.00 in0.0 mm 0.00 in0.0 mm
10:42 PM 54.7°F12.6°C 46.9°F8.3°C 75% Calm Calm -- 30.28 in1025.4 mb - 0.00 in0.0 mm 0.00 in0.0 mm
10:47 PM 54.5°F12.5°C 47.1°F8.4°C 76% Calm Calm -- 30.28 in1025.4 mb - 0.00 in0.0 mm 0.00 in0.0 mm
10:52 PM 54.3°F12.4°C 46.9°F8.3°C 76% Calm Calm -- 30.28 in1025.4 mb - 0.00 in0.0 mm 0.00 in0.0 mm
10:57 PM 54.3°F12.4°C 46.9°F8.3°C 76% Calm Calm -- 30.31 in1026.4 mb - 0.00 in0.0 mm 0.00 in0.0 mm
11:02 PM 54.1°F12.3°C 47.1°F8.4°C 77% Calm Calm -- 30.31 in1026.4 mb - 0.00 in0.0 mm 0.00 in0.0 mm
11:07 PM 54.0°F12.2°C 46.9°F8.3°C 77% Calm Calm -- 30.31 in1026.4 mb - 0.00 in0.0 mm 0.00 in0.0 mm
11:12 PM 54.0°F12.2°C 46.9°F8.3°C 77% Calm Calm -- 30.31 in1026.4 mb - 0.00 in0.0 mm 0.00 in0.0 mm
11:17 PM 53.8°F12.1°C 46.8°F8.2°C 77% Calm Calm -- 30.31 in1026.4 mb - 0.00 in0.0 mm 0.00 in0.0 mm
11:22 PM 53.6°F12.0°C 46.6°F8.1°C 77% Calm Calm -- 30.31 in1026.4 mb - 0.00 in0.0 mm 0.00 in0.0 mm
11:27 PM 53.4°F11.9°C 46.4°F8.0°C 77% Calm Calm -- 30.31 in1026.4 mb - 0.00 in0.0 mm 0.00 in0.0 mm
11:32 PM 53.2°F11.8°C 46.2°F7.9°C 77% Calm Calm -- 30.31 in1026.4 mb - 0.00 in0.0 mm 0.00 in0.0 mm
11:37 PM 53.2°F11.8°C 46.6°F8.1°C 78% Calm Calm -- 30.31 in1026.4 mb - 0.00 in0.0 mm 0.00 in0.0 mm
11:42 PM 53.6°F12.0°C 46.9°F8.3°C 78% Calm Calm -- 30.31 in1026.4 mb - 0.00 in0.0 mm 0.00 in0.0 mm
11:47 PM 54.0°F12.2°C 47.7°F8.7°C 79% Calm Calm -- 30.31 in1026.4 mb - 0.00 in0.0 mm 0.00 in0.0 mm
11:52 PM 54.1°F12.3°C 48.2°F9.0°C 80% Calm Calm -- 30.31 in1026.4 mb - 0.00 in0.0 mm 0.00 in0.0 mm
11:57 PM 53.6°F12.0°C 47.7°F8.7°C 80% Calm Calm -- 30.31 in1026.4 mb - 0.00 in0.0 mm 0.00 in0.0 mm